Aviation Digital Data Service (ADDS)

Output produced by METARs form (1506 UTC 01 March 2015)
found at http://aviationweather.gov/adds/metars/
 
KRUT 011127Z 0112/0212 15007KT P6SM OVC120 
     FM011500 17008G15KT P6SM OVC050 
     FM011700 17008G15KT 2SM -SN BR OVC025 
     FM012300 16008KT 1 1/2SM -SN BR OVC015 
     FM020800 29005KT 3SM -SN BR OVC020 AMD LTD TO CLD VIS AND WIND